Time;durP1;ratioP1;P1;durP2;ratioP2;P2;SDS_P1;SDS_P2;PMS_P1;PMS_P2;Temp;Humidity;BMP_temperature;BMP_pressure;BME280_temperature;BME280_humidity;BME280_pressure;Samples;Min_cycle;Max_cycle;Signal;HPM_P1;HPM_P2
2023/01/30 00:01:05;;;;;;;;;;;6.90;99.90;;;;;;5092958;28;19908;-78
2023/01/30 00:03:31;;;;;;;;;;;6.90;99.90;;;;;;5092209;28;19965;-77
2023/01/30 00:05:56;;;;;;;;;;;6.80;99.90;;;;;;5092817;28;19909;-78
2023/01/30 00:08:22;;;;;;;;;;;6.80;99.90;;;;;;5091919;28;19931;-78
2023/01/30 00:10:48;;;;;;;;;;;6.70;99.90;;;;;;5093000;28;19908;-78
2023/01/30 00:13:14;;;;;;;;;;;6.70;99.90;;;;;;5091452;28;20448;-79
2023/01/30 00:15:40;;;;;;;;;;;6.60;99.90;;;;;;5092188;28;20246;-79
2023/01/30 00:18:05;;;;;;;;;;;6.60;99.90;;;;;;5092683;28;19933;-78
2023/01/30 00:20:31;;;;;;;;;;;6.50;99.90;;;;;;5092409;28;20008;-79
2023/01/30 00:22:57;;;;;;;;;;;6.50;99.90;;;;;;5092144;28;20250;-80
2023/01/30 00:25:23;;;;;;;;;;;6.50;99.90;;;;;;5092239;28;19965;-78
2023/01/30 00:27:49;;;;;;;;;;;6.50;99.90;;;;;;5092464;28;20003;-79
2023/01/30 00:30:15;;;;;;;;;;;6.50;99.90;;;;;;5091964;28;20384;-77
2023/01/30 00:32:40;;;;;;;;;;;6.50;99.90;;;;;;5091086;28;19919;-79
2023/01/30 00:35:06;;;;;;;;;;;6.50;99.90;;;;;;5092539;28;20298;-79
2023/01/30 00:37:31;;;;;;;;;;;6.50;99.90;;;;;;5092096;28;20313;-79
2023/01/30 00:39:57;;;;;;;;;;;6.50;99.90;;;;;;5092242;28;20008;-79
2023/01/30 00:47:53;;;;;;;;;;;6.60;99.90;;;;;;5091983;28;19919;-79
2023/01/30 00:50:19;;;;;;;;;;;6.70;99.90;;;;;;5091604;28;19912;-78
2023/01/30 00:52:44;;;;;;;;;;;6.70;99.90;;;;;;5091634;28;19930;-78
2023/01/30 00:55:10;;;;;;;;;;;6.70;99.90;;;;;;5091397;28;19912;-85
2023/01/30 00:57:35;;;;;;;;;;;6.70;99.90;;;;;;5091836;28;20363;-79
2023/01/30 01:00:04;;;;;;;;;;;6.70;99.90;;;;;;5090826;28;19990;-78
2023/01/30 01:02:29;;;;;;;;;;;6.60;99.90;;;;;;5091100;28;19987;-77
2023/01/30 01:04:55;;;;;;;;;;;6.60;99.90;;;;;;5092152;28;19971;-78
2023/01/30 01:07:20;;;;;;;;;;;6.60;99.90;;;;;;5091369;28;19912;-79
2023/01/30 01:09:46;;;;;;;;;;;6.60;99.90;;;;;;5091997;28;19924;-78
2023/01/30 01:12:12;;;;;;;;;;;6.70;99.90;;;;;;5091576;28;19968;-80
2023/01/30 01:14:37;;;;;;;;;;;6.70;99.90;;;;;;5090585;28;19916;-80
2023/01/30 01:17:03;;;;;;;;;;;6.70;99.90;;;;;;5090799;28;19909;-79
2023/01/30 01:19:28;;;;;;;;;;;6.70;99.90;;;;;;5091150;28;19908;-78
2023/01/30 01:21:54;;;;;;;;;;;6.70;99.90;;;;;;5091208;28;19919;-78
2023/01/30 01:24:19;;;;;;;;;;;6.70;99.90;;;;;;5090941;28;19912;-77
2023/01/30 01:26:45;;;;;;;;;;;6.80;99.90;;;;;;5091922;28;20020;-78
2023/01/30 01:29:14;;;;;;;;;;;6.80;99.90;;;;;;5090139;28;19908;-87
2023/01/30 01:31:40;;;;;;;;;;;6.80;99.90;;;;;;5091935;28;19956;-79
2023/01/30 01:34:06;;;;;;;;;;;6.80;99.90;;;;;;5091922;28;20388;-79
2023/01/30 01:36:31;;;;;;;;;;;6.80;99.90;;;;;;5091446;28;20327;-79
2023/01/30 01:38:57;;;;;;;;;;;6.70;99.90;;;;;;5091540;28;19908;-79
2023/01/30 01:41:22;;;;;;;;;;;6.70;99.90;;;;;;5091014;28;19912;-79
2023/01/30 01:44:07;;;;;;;;;;;6.70;99.90;;;;;;5091905;28;19974;-79
2023/01/30 01:46:35;;;;;;;;;;;6.60;99.90;;;;;;5091546;28;20379;-79
2023/01/30 01:49:03;;;;;;;;;;;6.50;99.90;;;;;;5091311;28;19953;-79
2023/01/30 01:51:32;;;;;;;;;;;6.40;99.90;;;;;;5091493;28;20242;-79
2023/01/30 01:54:00;;;;;;;;;;;6.40;99.90;;;;;;5091146;28;19964;-79
2023/01/30 01:56:26;;;;;;;;;;;6.40;99.90;;;;;;5090770;28;19959;-79
2023/01/30 01:59:02;;;;;;;;;;;6.30;99.90;;;;;;5091563;28;19954;-79
2023/01/30 02:01:28;;;;;;;;;;;6.30;99.90;;;;;;5090952;28;19980;-80
2023/01/30 02:03:57;;;;;;;;;;;6.30;99.90;;;;;;5091282;28;19916;-78
2023/01/30 02:06:23;;;;;;;;;;;6.20;99.90;;;;;;5090575;28;19912;-78
2023/01/30 02:09:01;;;;;;;;;;;6.20;99.90;;;;;;5090988;28;19928;-79
2023/01/30 02:11:56;;;;;;;;;;;6.10;99.90;;;;;;5090330;28;19931;-79
2023/01/30 02:14:21;;;;;;;;;;;6.10;99.90;;;;;;5080691;28;19942;-80
2023/01/30 02:16:47;;;;;;;;;;;6.10;99.90;;;;;;5090421;28;19931;-80
2023/01/30 02:19:22;;;;;;;;;;;6.10;99.90;;;;;;5090754;28;19912;-87
2023/01/30 02:22:06;;;;;;;;;;;6.10;99.90;;;;;;5090908;28;20365;-79
2023/01/30 02:24:50;;;;;;;;;;;6.10;99.90;;;;;;5090303;28;19912;-80
2023/01/30 02:27:15;;;;;;;;;;;6.10;99.90;;;;;;5089490;28;19908;-87
2023/01/30 02:30:10;;;;;;;;;;;6.20;99.90;;;;;;5090695;28;20329;-79
2023/01/30 02:33:02;;;;;;;;;;;6.30;99.90;;;;;;5080718;28;20003;-80
2023/01/30 02:35:31;;;;;;;;;;;6.30;99.90;;;;;;5089857;28;20331;-78
2023/01/30 02:37:59;;;;;;;;;;;6.40;99.90;;;;;;5089041;28;20300;-79
2023/01/30 02:40:34;;;;;;;;;;;6.40;99.90;;;;;;5090467;28;19915;-81
2023/01/30 02:43:05;;;;;;;;;;;6.50;99.90;;;;;;5090463;28;20003;-80
2023/01/30 02:45:34;;;;;;;;;;;6.50;99.90;;;;;;5089668;28;19916;-79
2023/01/30 02:48:04;;;;;;;;;;;6.60;99.90;;;;;;5090381;28;19935;-79
2023/01/30 02:50:33;;;;;;;;;;;6.60;99.90;;;;;;5089935;28;19908;-79
2023/01/30 02:52:59;;;;;;;;;;;6.60;99.90;;;;;;5090407;28;19912;-78
2023/01/30 02:55:26;;;;;;;;;;;6.60;99.90;;;;;;5089591;28;20230;-79
2023/01/30 02:57:52;;;;;;;;;;;6.70;99.90;;;;;;5090433;28;19908;-78
2023/01/30 03:00:21;;;;;;;;;;;6.70;99.90;;;;;;5089693;28;19931;-84
2023/01/30 03:03:08;;;;;;;;;;;6.70;99.90;;;;;;5090181;28;19908;-79
2023/01/30 03:05:40;;;;;;;;;;;6.70;99.90;;;;;;5089808;28;20364;-79
2023/01/30 03:08:09;;;;;;;;;;;6.70;99.90;;;;;;5090471;28;19920;-80
2023/01/30 03:10:47;;;;;;;;;;;6.70;99.90;;;;;;5088624;28;20382;-81
2023/01/30 03:13:19;;;;;;;;;;;6.70;99.90;;;;;;5089885;28;19919;-81
2023/01/30 03:15:49;;;;;;;;;;;6.80;99.90;;;;;;5089531;28;20294;-82
2023/01/30 03:18:16;;;;;;;;;;;6.80;99.90;;;;;;5090351;28;19912;-79
2023/01/30 03:20:41;;;;;;;;;;;6.70;99.90;;;;;;5089525;28;20002;-80
2023/01/30 03:23:07;;;;;;;;;;;6.80;99.90;;;;;;5090325;28;20382;-79
2023/01/30 03:25:34;;;;;;;;;;;6.80;99.90;;;;;;5088383;28;19972;-79
2023/01/30 03:28:01;;;;;;;;;;;6.80;99.90;;;;;;5090149;28;19915;-80
2023/01/30 03:30:26;;;;;;;;;;;6.80;99.90;;;;;;5090099;28;19908;-80
2023/01/30 03:32:52;;;;;;;;;;;6.80;99.90;;;;;;5089746;28;19920;-79
2023/01/30 03:35:17;;;;;;;;;;;6.80;99.90;;;;;;5089961;28;19912;-86
2023/01/30 03:37:44;;;;;;;;;;;6.80;99.90;;;;;;5089881;28;19915;-78
2023/01/30 03:40:11;;;;;;;;;;;6.70;99.90;;;;;;5093046;28;19990;-81
2023/01/30 03:42:36;;;;;;;;;;;6.80;99.90;;;;;;5093188;28;19912;-79
2023/01/30 03:45:02;;;;;;;;;;;6.80;99.90;;;;;;5093881;28;19918;-79
2023/01/30 03:47:27;;;;;;;;;;;6.70;99.90;;;;;;5093262;28;20015;-79
2023/01/30 03:49:53;;;;;;;;;;;6.70;99.90;;;;;;5093624;28;19908;-78
2023/01/30 03:52:19;;;;;;;;;;;6.70;99.90;;;;;;5093600;28;19912;-85
2023/01/30 03:54:44;;;;;;;;;;;6.70;99.90;;;;;;5092700;28;19916;-79
2023/01/30 03:57:10;;;;;;;;;;;6.70;99.90;;;;;;5094436;28;19907;-79
2023/01/30 03:59:35;;;;;;;;;;;6.70;99.90;;;;;;5093372;28;19953;-80
2023/01/30 04:02:01;;;;;;;;;;;6.70;99.90;;;;;;5093324;28;19908;-79
2023/01/30 04:04:26;;;;;;;;;;;6.70;99.90;;;;;;5092958;28;19951;-80
2023/01/30 04:06:52;;;;;;;;;;;6.70;99.90;;;;;;5094075;28;19920;-79
2023/01/30 04:09:17;;;;;;;;;;;6.70;99.90;;;;;;5093433;28;19955;-79
2023/01/30 04:11:43;;;;;;;;;;;6.70;99.90;;;;;;5092508;28;19961;-79
2023/01/30 04:14:09;;;;;;;;;;;6.70;99.90;;;;;;5091704;28;19912;-80
2023/01/30 04:16:34;;;;;;;;;;;6.70;99.90;;;;;;5092649;28;19965;-79
2023/01/30 04:19:00;;;;;;;;;;;6.70;99.90;;;;;;5092866;28;20399;-80
2023/01/30 04:21:25;;;;;;;;;;;6.70;99.90;;;;;;5092668;28;19915;-80
2023/01/30 04:23:51;;;;;;;;;;;6.70;99.90;;;;;;5092978;28;20361;-78
2023/01/30 04:26:16;;;;;;;;;;;6.70;99.90;;;;;;5091683;28;19908;-79
2023/01/30 04:28:43;;;;;;;;;;;6.70;99.90;;;;;;5092289;28;19915;-79
2023/01/30 04:31:09;;;;;;;;;;;6.70;99.90;;;;;;5091447;28;19909;-79
2023/01/30 04:33:35;;;;;;;;;;;6.70;99.90;;;;;;5091956;28;20356;-79
2023/01/30 04:36:01;;;;;;;;;;;6.70;99.90;;;;;;5092624;28;19919;-78
2023/01/30 04:38:28;;;;;;;;;;;6.60;99.90;;;;;;5092059;28;19908;-80
2023/01/30 04:40:54;;;;;;;;;;;6.60;99.90;;;;;;5092564;28;19977;-79
2023/01/30 04:43:23;;;;;;;;;;;6.50;99.90;;;;;;5092083;28;20370;-79
2023/01/30 04:45:50;;;;;;;;;;;6.50;99.90;;;;;;5092302;28;19908;-80
2023/01/30 04:48:16;;;;;;;;;;;6.40;99.90;;;;;;5091914;28;20322;-80
2023/01/30 04:50:42;;;;;;;;;;;6.40;99.90;;;;;;5091681;28;20238;-79
2023/01/30 04:53:08;;;;;;;;;;;6.40;99.90;;;;;;5092296;28;19970;-83
2023/01/30 04:55:33;;;;;;;;;;;6.40;99.90;;;;;;5091632;28;19954;-80
2023/01/30 04:57:59;;;;;;;;;;;6.40;99.90;;;;;;5091086;28;19915;-80
2023/01/30 05:00:25;;;;;;;;;;;6.30;99.90;;;;;;5092093;28;19908;-88
2023/01/30 05:02:50;;;;;;;;;;;6.30;99.90;;;;;;5091490;28;19915;-80
2023/01/30 05:05:16;;;;;;;;;;;6.30;99.90;;;;;;5092205;28;19954;-80
2023/01/30 05:07:41;;;;;;;;;;;6.30;99.90;;;;;;5091270;28;19943;-80
2023/01/30 05:10:07;;;;;;;;;;;6.30;99.90;;;;;;5090551;28;19915;-80
2023/01/30 05:12:33;;;;;;;;;;;6.30;99.90;;;;;;5091482;28;20389;-80
2023/01/30 05:15:00;;;;;;;;;;;6.30;99.90;;;;;;5091679;28;19912;-79
2023/01/30 05:17:26;;;;;;;;;;;6.30;99.90;;;;;;5090137;28;19934;-87
2023/01/30 05:19:51;;;;;;;;;;;6.30;99.90;;;;;;5091406;28;19924;-78
2023/01/30 05:22:17;;;;;;;;;;;6.40;99.90;;;;;;5091592;28;19908;-79
2023/01/30 05:24:42;;;;;;;;;;;6.40;99.90;;;;;;5091737;28;19912;-79
2023/01/30 05:27:08;;;;;;;;;;;6.40;99.90;;;;;;5091433;28;20280;-79
2023/01/30 05:29:34;;;;;;;;;;;6.40;99.90;;;;;;5090881;28;19915;-80
2023/01/30 05:31:59;;;;;;;;;;;6.50;99.90;;;;;;5091785;28;19999;-80
2023/01/30 05:34:25;;;;;;;;;;;6.40;99.90;;;;;;5091580;28;19957;-79
2023/01/30 05:36:50;;;;;;;;;;;6.40;99.90;;;;;;5091065;28;19913;-79
2023/01/30 05:39:16;;;;;;;;;;;6.40;99.90;;;;;;5091482;28;19908;-80
2023/01/30 05:41:42;;;;;;;;;;;6.30;99.90;;;;;;5091172;28;20467;-79
2023/01/30 05:44:07;;;;;;;;;;;6.30;99.90;;;;;;5091565;28;19908;-79
2023/01/30 05:46:33;;;;;;;;;;;6.20;99.90;;;;;;5090884;28;19950;-80
2023/01/30 05:48:58;;;;;;;;;;;6.20;99.90;;;;;;5090790;28;19908;-80
2023/01/30 05:51:25;;;;;;;;;;;6.20;99.90;;;;;;5091533;28;20318;-79
2023/01/30 05:53:51;;;;;;;;;;;6.10;99.90;;;;;;5090723;28;20221;-80
2023/01/30 05:56:17;;;;;;;;;;;6.00;99.90;;;;;;5089946;28;19970;-80
2023/01/30 05:58:43;;;;;;;;;;;6.00;99.90;;;;;;5090580;28;20372;-80
2023/01/30 06:01:10;;;;;;;;;;;6.00;99.90;;;;;;5090726;28;20014;-79
2023/01/30 06:03:36;;;;;;;;;;;5.90;99.90;;;;;;5090659;28;19952;-78
2023/01/30 06:06:03;;;;;;;;;;;5.80;99.90;;;;;;5091509;28;20301;-78
2023/01/30 06:08:29;;;;;;;;;;;5.90;99.90;;;;;;5090776;28;20237;-81
2023/01/30 06:10:58;;;;;;;;;;;5.80;99.90;;;;;;5090730;28;19919;-80
2023/01/30 06:13:23;;;;;;;;;;;5.80;99.90;;;;;;5091111;28;19912;-80
2023/01/30 06:15:51;;;;;;;;;;;5.80;99.90;;;;;;5090051;28;20550;-80
2023/01/30 06:18:16;;;;;;;;;;;5.80;99.90;;;;;;5090982;28;19931;-79
2023/01/30 06:20:45;;;;;;;;;;;5.80;99.90;;;;;;5090243;28;20353;-80
2023/01/30 06:23:11;;;;;;;;;;;5.90;99.90;;;;;;5091274;28;20349;-80
2023/01/30 06:25:36;;;;;;;;;;;5.90;99.90;;;;;;5090510;28;19909;-80
2023/01/30 06:28:02;;;;;;;;;;;5.90;99.90;;;;;;5090930;28;20320;-80
2023/01/30 06:30:28;;;;;;;;;;;5.90;99.90;;;;;;5089645;28;20199;-80
2023/01/30 06:32:53;;;;;;;;;;;5.80;99.90;;;;;;5090245;28;20437;-79
2023/01/30 06:35:19;;;;;;;;;;;5.80;99.90;;;;;;5090549;28;20014;-79
2023/01/30 06:37:44;;;;;;;;;;;5.70;99.90;;;;;;5090436;28;20000;-80
2023/01/30 06:40:11;;;;;;;;;;;5.70;99.90;;;;;;5091564;28;19940;-80
2023/01/30 06:42:36;;;;;;;;;;;5.60;99.90;;;;;;5090801;28;20003;-81
2023/01/30 06:45:02;;;;;;;;;;;5.60;99.90;;;;;;5090199;28;19958;-80
2023/01/30 06:47:27;;;;;;;;;;;5.50;99.90;;;;;;5090605;28;19950;-80
2023/01/30 06:49:53;;;;;;;;;;;5.50;99.90;;;;;;5089737;28;20437;-80
2023/01/30 06:52:18;;;;;;;;;;;5.50;99.90;;;;;;5090558;28;20280;-80
2023/01/30 06:54:44;;;;;;;;;;;5.40;99.90;;;;;;5090104;28;20008;-80
2023/01/30 06:57:11;;;;;;;;;;;5.40;99.90;;;;;;5090993;28;19916;-80
2023/01/30 06:59:36;;;;;;;;;;;5.30;99.90;;;;;;5090206;28;19915;-80
2023/01/30 07:02:02;;;;;;;;;;;5.30;99.90;;;;;;5090989;28;19912;-80
2023/01/30 07:04:28;;;;;;;;;;;5.30;99.90;;;;;;5090662;28;19914;-80
2023/01/30 07:06:53;;;;;;;;;;;5.20;99.90;;;;;;5090435;28;20127;-80
2023/01/30 07:09:19;;;;;;;;;;;5.20;99.90;;;;;;5090814;28;19920;-81
2023/01/30 07:11:46;;;;;;;;;;;5.20;99.90;;;;;;5090526;28;19912;-80
2023/01/30 07:14:11;;;;;;;;;;;5.20;99.90;;;;;;5093800;28;19912;-81
2023/01/30 07:16:37;;;;;;;;;;;5.10;99.90;;;;;;5093948;28;20026;-81
2023/01/30 07:19:02;;;;;;;;;;;5.10;99.90;;;;;;5094449;28;20381;-80
2023/01/30 07:21:28;;;;;;;;;;;5.10;99.90;;;;;;5094196;28;20230;-79
2023/01/30 07:23:53;;;;;;;;;;;5.10;99.90;;;;;;5092343;28;19908;-80
2023/01/30 07:26:19;;;;;;;;;;;5.10;99.90;;;;;;5094176;28;19961;-80
2023/01/30 07:28:45;;;;;;;;;;;5.00;99.90;;;;;;5091994;28;19991;-80
2023/01/30 07:31:10;;;;;;;;;;;5.00;99.90;;;;;;5092836;28;19908;-80
2023/01/30 07:33:36;;;;;;;;;;;5.00;99.90;;;;;;5093922;28;20246;-88
2023/01/30 07:36:01;;;;;;;;;;;5.00;99.90;;;;;;5094504;28;19935;-80
2023/01/30 07:38:27;;;;;;;;;;;5.00;99.90;;;;;;5094172;28;19908;-79
2023/01/30 07:40:52;;;;;;;;;;;5.00;99.90;;;;;;5093510;28;20254;-80
2023/01/30 07:43:18;;;;;;;;;;;5.00;99.90;;;;;;5094357;28;19920;-80
2023/01/30 07:45:45;;;;;;;;;;;5.00;99.90;;;;;;5093029;28;20014;-81
2023/01/30 07:48:11;;;;;;;;;;;5.00;99.90;;;;;;5093855;28;20375;-80
2023/01/30 07:50:37;;;;;;;;;;;5.00;99.90;;;;;;5092704;28;19908;-87
2023/01/30 07:53:07;;;;;;;;;;;5.10;99.90;;;;;;5093123;28;19922;-80
2023/01/30 07:55:33;;;;;;;;;;;5.10;99.90;;;;;;5093788;28;19982;-80
2023/01/30 07:57:59;;;;;;;;;;;5.20;99.90;;;;;;5092631;28;20010;-80
2023/01/30 08:00:24;;;;;;;;;;;5.20;99.90;;;;;;5075259;28;19970;-80
2023/01/30 08:02:50;;;;;;;;;;;5.20;99.90;;;;;;5092674;28;19908;-81
2023/01/30 08:05:16;;;;;;;;;;;5.20;99.90;;;;;;5093160;28;20293;-80
2023/01/30 08:07:41;;;;;;;;;;;5.30;99.90;;;;;;5093359;28;20046;-81
2023/01/30 08:10:07;;;;;;;;;;;5.40;99.90;;;;;;5093597;28;19908;-81
2023/01/30 08:12:33;;;;;;;;;;;5.40;99.90;;;;;;5093001;28;19912;-81
2023/01/30 08:14:58;;;;;;;;;;;5.50;99.90;;;;;;5092743;28;19914;-81
2023/01/30 08:17:24;;;;;;;;;;;5.50;99.90;;;;;;5093556;28;19916;-81
2023/01/30 08:19:50;;;;;;;;;;;5.50;99.90;;;;;;5092791;28;19908;-80
2023/01/30 08:22:15;;;;;;;;;;;5.60;99.90;;;;;;5091628;28;19923;-80
2023/01/30 08:24:41;;;;;;;;;;;5.60;99.90;;;;;;5092175;28;20401;-85
2023/01/30 08:27:07;;;;;;;;;;;5.60;99.90;;;;;;5093526;28;19908;-79
2023/01/30 08:29:32;;;;;;;;;;;5.60;99.90;;;;;;5093129;28;19919;-80
2023/01/30 08:31:58;;;;;;;;;;;5.60;99.90;;;;;;5092509;28;20007;-81
2023/01/30 08:34:24;;;;;;;;;;;5.70;99.90;;;;;;5093130;28;19924;-79
2023/01/30 08:36:49;;;;;;;;;;;5.70;99.90;;;;;;5092118;28;20358;-79
2023/01/30 08:39:15;;;;;;;;;;;5.80;99.90;;;;;;5093295;28;19968;-78
2023/01/30 08:41:43;;;;;;;;;;;5.90;99.90;;;;;;5092733;28;20012;-86
2023/01/30 08:44:09;;;;;;;;;;;5.90;99.90;;;;;;5092480;28;19912;-81
2023/01/30 08:46:35;;;;;;;;;;;5.90;99.90;;;;;;5092860;28;20246;-80
2023/01/30 08:49:00;;;;;;;;;;;6.00;99.90;;;;;;5090913;28;19915;-79
2023/01/30 08:51:26;;;;;;;;;;;6.00;99.90;;;;;;5092698;28;19986;-79
2023/01/30 08:53:51;;;;;;;;;;;6.00;99.90;;;;;;5092225;28;19922;-80
2023/01/30 08:56:17;;;;;;;;;;;6.10;99.90;;;;;;5093337;28;20411;-80
2023/01/30 08:58:44;;;;;;;;;;;6.10;99.90;;;;;;5092804;28;20010;-86
2023/01/30 09:01:10;;;;;;;;;;;6.10;99.90;;;;;;5093126;28;19995;-79
2023/01/30 09:03:35;;;;;;;;;;;6.10;99.90;;;;;;5092875;28;19958;-79
2023/01/30 09:06:01;;;;;;;;;;;6.10;99.90;;;;;;5092123;28;19908;-79
2023/01/30 09:08:27;;;;;;;;;;;6.10;99.90;;;;;;5092830;28;19974;-79
2023/01/30 09:10:56;;;;;;;;;;;6.10;99.90;;;;;;5092690;28;19920;-79
2023/01/30 09:13:22;;;;;;;;;;;6.10;99.90;;;;;;5093397;28;19912;-79
2023/01/30 09:15:47;;;;;;;;;;;6.10;99.90;;;;;;5092846;28;19972;-80
2023/01/30 09:18:13;;;;;;;;;;;6.10;99.90;;;;;;5092531;28;19919;-79
2023/01/30 09:20:38;;;;;;;;;;;6.10;99.90;;;;;;5093329;28;20393;-80
2023/01/30 09:23:04;;;;;;;;;;;6.20;99.90;;;;;;5091810;28;20543;-80
2023/01/30 09:25:29;;;;;;;;;;;6.20;99.90;;;;;;5092394;28;20323;-80
2023/01/30 09:27:55;;;;;;;;;;;6.20;99.90;;;;;;5091849;28;19998;-81
2023/01/30 09:30:21;;;;;;;;;;;6.20;99.90;;;;;;5091702;28;19912;-80
2023/01/30 09:32:46;;;;;;;;;;;6.20;99.90;;;;;;5091392;28;19916;-81
2023/01/30 09:35:12;;;;;;;;;;;6.10;99.90;;;;;;5091537;28;19923;-80
2023/01/30 09:37:38;;;;;;;;;;;6.20;99.90;;;;;;5090674;28;20019;-81
2023/01/30 09:40:04;;;;;;;;;;;6.20;99.90;;;;;;5091156;28;19936;-80
2023/01/30 09:42:44;;;;;;;;;;;6.10;99.90;;;;;;5091646;28;19908;-80
2023/01/30 09:45:34;;;;;;;;;;;6.20;99.90;;;;;;5091482;28;19951;-79
2023/01/30 09:48:11;;;;;;;;;;;6.20;99.90;;;;;;5091214;28;19908;-80
2023/01/30 09:50:37;;;;;;;;;;;6.30;99.90;;;;;;5091381;28;19916;-78
2023/01/30 09:53:15;;;;;;;;;;;6.30;99.90;;;;;;5090720;28;19928;-80
2023/01/30 09:55:41;;;;;;;;;;;6.30;99.90;;;;;;5089823;28;20280;-79
2023/01/30 09:58:15;;;;;;;;;;;6.40;99.90;;;;;;5090979;28;20028;-78
2023/01/30 10:00:43;;;;;;;;;;;6.40;99.90;;;;;;5091542;28;20002;-78
2023/01/30 10:03:13;;;;;;;;;;;6.40;99.90;;;;;;5090696;28;19920;-80
2023/01/30 10:05:44;;;;;;;;;;;6.40;99.90;;;;;;5090131;28;20247;-79
2023/01/30 10:08:18;;;;;;;;;;;6.40;99.90;;;;;;5090934;28;20010;-79
2023/01/30 10:10:44;;;;;;;;;;;6.40;99.90;;;;;;5091876;28;20015;-79
2023/01/30 10:13:12;;;;;;;;;;;6.40;99.90;;;;;;5090801;28;20429;-78
2023/01/30 10:15:38;;;;;;;;;;;6.40;99.90;;;;;;5089630;28;20395;-79
2023/01/30 10:18:13;;;;;;;;;;;6.50;99.90;;;;;;5090713;28;19908;-79
2023/01/30 10:20:42;;;;;;;;;;;6.50;99.90;;;;;;5091166;28;20040;-79
2023/01/30 10:23:08;;;;;;;;;;;6.50;99.90;;;;;;5090616;28;20326;-78
2023/01/30 10:25:42;;;;;;;;;;;6.60;99.90;;;;;;5091879;28;19919;-79
2023/01/30 10:28:15;;;;;;;;;;;6.60;99.90;;;;;;5091210;28;19908;-78
2023/01/30 10:30:43;;;;;;;;;;;6.60;99.90;;;;;;5091207;28;19908;-79
2023/01/30 10:33:20;;;;;;;;;;;6.60;99.90;;;;;;5090351;28;19959;-79
2023/01/30 10:35:48;;;;;;;;;;;6.50;99.90;;;;;;5091072;28;19919;-80
2023/01/30 10:38:20;;;;;;;;;;;6.60;99.90;;;;;;5090967;28;19976;-79
2023/01/30 10:40:50;;;;;;;;;;;6.50;99.90;;;;;;5090938;28;19915;-79
2023/01/30 10:43:23;;;;;;;;;;;6.50;99.90;;;;;;5090745;28;19927;-79
2023/01/30 10:45:56;;;;;;;;;;;6.50;99.90;;;;;;5090012;28;20131;-88
2023/01/30 10:48:38;;;;;;;;;;;6.50;99.90;;;;;;5092249;28;19916;-80
2023/01/30 10:51:12;;;;;;;;;;;6.50;99.90;;;;;;5093822;28;19974;-80
2023/01/30 10:53:42;;;;;;;;;;;6.50;99.90;;;;;;5093920;28;20011;-80
2023/01/30 10:56:11;;;;;;;;;;;6.50;99.90;;;;;;5094195;28;20364;-79
2023/01/30 10:58:50;;;;;;;;;;;6.50;99.90;;;;;;5094092;28;20353;-86
2023/01/30 11:01:20;;;;;;;;;;;6.50;99.90;;;;;;5094466;28;19912;-79
2023/01/30 11:03:47;;;;;;;;;;;6.60;99.90;;;;;;5094457;28;19914;-80
2023/01/30 11:06:17;;;;;;;;;;;6.60;99.90;;;;;;5092284;28;19912;-79
2023/01/30 11:08:43;;;;;;;;;;;6.70;99.90;;;;;;5093328;28;19930;-79
2023/01/30 11:11:23;;;;;;;;;;;6.70;99.90;;;;;;5093175;28;19968;-79
2023/01/30 11:13:49;;;;;;;;;;;6.80;99.90;;;;;;5092988;28;19912;-87
2023/01/30 11:16:15;;;;;;;;;;;6.90;99.90;;;;;;5093082;28;19990;-80
2023/01/30 11:18:48;;;;;;;;;;;6.90;99.90;;;;;;5093398;28;19908;-79
2023/01/30 11:21:27;;;;;;;;;;;6.90;99.90;;;;;;5091279;28;19912;-80
2023/01/30 11:23:53;;;;;;;;;;;7.00;99.90;;;;;;5092994;28;19912;-80
2023/01/30 11:26:24;;;;;;;;;;;7.00;99.90;;;;;;5093579;28;20317;-80
2023/01/30 11:28:50;;;;;;;;;;;7.00;99.90;;;;;;5092563;28;19908;-87
2023/01/30 11:31:17;;;;;;;;;;;7.10;99.90;;;;;;5094059;28;20218;-80
2023/01/30 11:33:43;;;;;;;;;;;7.10;99.90;;;;;;5093813;28;19916;-79
2023/01/30 11:36:23;;;;;;;;;;;7.20;99.90;;;;;;5091893;28;19916;-80
2023/01/30 11:38:56;;;;;;;;;;;7.20;99.90;;;;;;5093979;28;19957;-78
2023/01/30 11:41:22;;;;;;;;;;;7.20;99.90;;;;;;5093953;28;19909;-78
2023/01/30 11:43:47;;;;;;;;;;;7.20;99.90;;;;;;5093904;28;19915;-79
2023/01/30 11:46:16;;;;;;;;;;;7.30;99.90;;;;;;5093272;28;19965;-78
2023/01/30 11:48:49;;;;;;;;;;;7.30;99.90;;;;;;5093795;28;19957;-79
2023/01/30 11:51:15;;;;;;;;;;;7.30;99.90;;;;;;5093284;28;19931;-79
2023/01/30 11:53:49;;;;;;;;;;;7.30;99.90;;;;;;5093716;28;19957;-79
2023/01/30 11:56:44;;;;;;;;;;;7.30;99.90;;;;;;5093219;28;20218;-80
2023/01/30 11:59:16;;;;;;;;;;;7.40;99.90;;;;;;5081966;28;19908;-80
2023/01/30 12:01:42;;;;;;;;;;;7.50;99.90;;;;;;5093843;28;20435;-80
2023/01/30 12:04:09;;;;;;;;;;;7.60;99.90;;;;;;5092968;28;19947;-80
2023/01/30 12:06:36;;;;;;;;;;;7.70;99.90;;;;;;5094025;28;19968;-79
2023/01/30 12:09:03;;;;;;;;;;;7.80;99.90;;;;;;5092763;28;19931;-80
2023/01/30 12:11:45;;;;;;;;;;;7.90;99.90;;;;;;5093374;28;19908;-79
2023/01/30 12:14:29;;;;;;;;;;;7.90;99.90;;;;;;5092413;28;19912;-83
2023/01/30 12:17:04;;;;;;;;;;;7.80;99.90;;;;;;5092600;28;20042;-87
2023/01/30 12:19:34;;;;;;;;;;;7.80;99.90;;;;;;5091277;28;19912;-78
2023/01/30 12:22:18;;;;;;;;;;;7.70;99.90;;;;;;5092092;28;19916;-79
2023/01/30 12:24:47;;;;;;;;;;;7.70;99.90;;;;;;5092392;28;19912;-82
2023/01/30 12:27:40;;;;;;;;;;;7.80;99.90;;;;;;5089982;28;19997;-77
2023/01/30 12:30:16;;;;;;;;;;;7.80;99.90;;;;;;5075243;28;20389;-78
2023/01/30 12:32:43;;;;;;;;;;;7.80;99.90;;;;;;5092440;28;19927;-78
2023/01/30 12:35:16;;;;;;;;;;;7.80;99.90;;;;;;5090241;28;19919;-78
2023/01/30 12:37:51;;;;;;;;;;;7.70;99.90;;;;;;5092355;28;19951;-77
2023/01/30 12:40:19;;;;;;;;;;;7.70;99.90;;;;;;5091531;28;20136;-78
2023/01/30 12:42:47;;;;;;;;;;;7.70;99.90;;;;;;5091283;28;19957;-78
2023/01/30 12:45:21;;;;;;;;;;;7.70;99.90;;;;;;5091721;28;19912;-79
2023/01/30 12:48:09;;;;;;;;;;;7.70;99.90;;;;;;5092341;28;19915;-80
2023/01/30 12:50:38;;;;;;;;;;;7.80;99.90;;;;;;5092268;28;19927;-77
2023/01/30 12:53:12;;;;;;;;;;;8.00;99.90;;;;;;5091765;28;20069;-79
2023/01/30 12:55:38;;;;;;;;;;;8.20;99.90;;;;;;5092577;28;20334;-79
2023/01/30 12:58:22;;;;;;;;;;;8.30;99.90;;;;;;5091175;28;19947;-79
2023/01/30 13:00:47;;;;;;;;;;;8.40;99.90;;;;;;5092900;28;20253;-78
2023/01/30 13:03:25;;;;;;;;;;;8.50;99.90;;;;;;5091752;28;19912;-79
2023/01/30 13:05:54;;;;;;;;;;;8.60;99.90;;;;;;5091996;28;19919;-79
2023/01/30 13:08:38;;;;;;;;;;;8.70;99.90;;;;;;5091664;28;19924;-78
2023/01/30 13:11:11;;;;;;;;;;;8.80;99.90;;;;;;5090262;28;19908;-79
2023/01/30 13:13:46;;;;;;;;;;;8.90;99.90;;;;;;5092346;28;20348;-79
2023/01/30 13:16:20;;;;;;;;;;;9.00;99.90;;;;;;5090768;28;20141;-77
2023/01/30 13:18:45;;;;;;;;;;;9.00;99.90;;;;;;5091137;28;19908;-77
2023/01/30 13:21:11;;;;;;;;;;;9.00;99.90;;;;;;5091682;28;19920;-77
2023/01/30 13:23:45;;;;;;;;;;;9.10;99.90;;;;;;5091835;28;20284;-78
2023/01/30 13:26:13;;;;;;;;;;;9.00;99.90;;;;;;5091304;28;19916;-79
2023/01/30 13:28:43;;;;;;;;;;;9.10;99.90;;;;;;5091324;28;20370;-79
2023/01/30 13:31:10;;;;;;;;;;;9.10;99.90;;;;;;5091072;28;20396;-78
2023/01/30 13:33:37;;;;;;;;;;;9.10;99.90;;;;;;5091906;28;20028;-80
2023/01/30 13:36:02;;;;;;;;;;;9.10;99.90;;;;;;5091286;28;20309;-79
2023/01/30 13:38:28;;;;;;;;;;;9.10;99.90;;;;;;5091503;28;19908;-78
2023/01/30 13:40:56;;;;;;;;;;;9.10;99.90;;;;;;5091667;28;20471;-77
2023/01/30 13:43:28;;;;;;;;;;;9.10;99.90;;;;;;5091246;28;20340;-78
2023/01/30 13:45:55;;;;;;;;;;;9.10;99.90;;;;;;5091227;28;19909;-77
2023/01/30 13:48:39;;;;;;;;;;;9.10;99.90;;;;;;5090942;28;19904;-80
2023/01/30 13:51:20;;;;;;;;;;;9.10;99.90;;;;;;5090506;28;19912;-79
2023/01/30 13:53:48;;;;;;;;;;;9.10;99.90;;;;;;5092085;28;19920;-79
2023/01/30 13:56:25;;;;;;;;;;;9.10;99.90;;;;;;5092090;28;19912;-79
2023/01/30 13:58:59;;;;;;;;;;;9.10;99.90;;;;;;5092417;28;19908;-79
2023/01/30 14:01:48;;;;;;;;;;;9.10;99.90;;;;;;5092504;28;20003;-78
2023/01/30 14:04:32;;;;;;;;;;;9.20;99.90;;;;;;5091482;28;20428;-77
2023/01/30 14:07:27;;;;;;;;;;;9.20;99.90;;;;;;5092460;28;20015;-78
2023/01/30 14:10:07;;;;;;;;;;;9.30;99.90;;;;;;5082819;28;20079;-77
2023/01/30 14:12:35;;;;;;;;;;;9.30;99.90;;;;;;5092215;28;20380;-78
2023/01/30 14:15:02;;;;;;;;;;;9.30;99.90;;;;;;5092386;28;20350;-83
2023/01/30 14:17:28;;;;;;;;;;;9.30;99.90;;;;;;5092211;28;19958;-77
2023/01/30 14:20:05;;;;;;;;;;;9.30;99.90;;;;;;5092419;28;19916;-77
2023/01/30 14:22:40;;;;;;;;;;;9.30;99.90;;;;;;5091184;28;20437;-78
2023/01/30 14:25:24;;;;;;;;;;;9.30;99.90;;;;;;5091157;28;19978;-78
2023/01/30 14:27:54;;;;;;;;;;;9.30;99.90;;;;;;5091973;28;20250;-78
2023/01/30 14:30:35;;;;;;;;;;;9.30;99.90;;;;;;5091497;28;19971;-78
2023/01/30 14:33:02;;;;;;;;;;;9.20;99.90;;;;;;5091749;28;19915;-78
2023/01/30 14:35:28;;;;;;;;;;;9.20;99.90;;;;;;5091646;28;19913;-78
2023/01/30 14:38:14;;;;;;;;;;;9.20;99.90;;;;;;5092486;28;19914;-79
2023/01/30 14:40:40;;;;;;;;;;;9.20;99.90;;;;;;5091582;28;20280;-78
2023/01/30 14:43:13;;;;;;;;;;;9.20;99.90;;;;;;5091432;28;19915;-80
2023/01/30 14:45:48;;;;;;;;;;;9.20;99.90;;;;;;5092072;28;19961;-77